createdAt,value
2023-04-23T00:01:48.112Z,16.35
2023-04-23T00:04:52.942Z,16.42
2023-04-23T00:07:54.784Z,16.47
2023-04-23T00:10:56.680Z,16.52
2023-04-23T00:13:58.368Z,16.49
2023-04-23T00:16:59.796Z,16.45
2023-04-23T00:20:01.346Z,16.38
2023-04-23T00:23:02.905Z,16.27
2023-04-23T00:26:04.716Z,16.31
2023-04-23T00:29:06.140Z,16.27
2023-04-23T00:32:07.951Z,16.25
2023-04-23T00:35:09.756Z,16.22
2023-04-23T00:38:11.376Z,16.28
2023-04-23T00:41:12.962Z,16.28
2023-04-23T00:44:14.871Z,16.11
2023-04-23T00:47:16.854Z,16.09
2023-04-23T00:50:18.738Z,16.07
2023-04-23T00:53:20.286Z,15.92
2023-04-23T00:56:23.890Z,15.87
2023-04-23T00:59:26.311Z,15.92
2023-04-23T01:02:31.147Z,15.67
2023-04-23T01:05:32.830Z,15.64
2023-04-23T01:08:34.861Z,15.61
2023-04-23T01:11:39.492Z,15.55
2023-04-23T01:14:41.655Z,15.49
2023-04-23T01:17:43.487Z,15.51
2023-04-23T01:20:45.026Z,15.51
2023-04-23T01:23:46.774Z,15.56
2023-04-23T01:26:48.332Z,15.54
2023-04-23T01:29:49.862Z,15.57
2023-04-23T01:32:55.229Z,15.51
2023-04-23T01:35:57.447Z,15.44
2023-04-23T01:38:59.087Z,15.39
2023-04-23T01:42:01.443Z,15.43
2023-04-23T01:45:03.618Z,15.35
2023-04-23T01:48:05.450Z,15.46
2023-04-23T01:51:07.159Z,15.42
2023-04-23T01:54:08.656Z,15.26
2023-04-23T01:57:10.827Z,15.21
2023-04-23T02:00:14.812Z,15.14
2023-04-23T02:03:16.494Z,15.08
2023-04-23T02:06:18.272Z,15.04
2023-04-23T02:09:19.884Z,15.04
2023-04-23T02:12:21.409Z,14.98
2023-04-23T02:15:22.942Z,14.88
2023-04-23T02:18:24.591Z,14.87
2023-04-23T02:21:27.358Z,14.86
2023-04-23T02:24:28.882Z,14.76
2023-04-23T02:27:30.500Z,14.77
2023-04-23T02:30:32.123Z,14.78
2023-04-23T02:33:33.660Z,14.84
2023-04-23T02:36:35.096Z,14.88
2023-04-23T02:39:38.954Z,14.92
2023-04-23T02:42:43.236Z,14.96
2023-04-23T02:45:45.490Z,14.89
2023-04-23T02:48:47.107Z,14.89
2023-04-23T02:51:48.654Z,14.89
2023-04-23T02:54:51.078Z,14.75
2023-04-23T02:57:52.536Z,14.76
2023-04-23T03:00:54.672Z,14.85
2023-04-23T03:03:56.533Z,14.83
2023-04-23T03:06:58.528Z,14.71
2023-04-23T03:10:00.212Z,14.72
2023-04-23T03:13:01.773Z,14.67
2023-04-23T03:16:03.722Z,14.48
2023-04-23T03:19:05.398Z,14.49
2023-04-23T03:22:07.000Z,14.60
2023-04-23T03:25:09.187Z,14.56
2023-04-23T03:28:10.711Z,14.49
2023-04-23T03:31:12.955Z,14.41
2023-04-23T03:34:14.737Z,14.50
2023-04-23T03:37:16.624Z,14.53
2023-04-23T03:40:19.533Z,14.48
2023-04-23T03:43:23.898Z,14.38
2023-04-23T03:46:48.284Z,14.43
2023-04-23T03:49:51.415Z,14.43
2023-04-23T03:52:53.084Z,14.48
2023-04-23T03:56:14.590Z,14.49
2023-04-23T03:59:24.049Z,14.54
2023-04-23T04:02:28.191Z,14.50
2023-04-23T04:05:29.952Z,14.46
2023-04-23T04:08:31.569Z,14.39
2023-04-23T04:11:33.043Z,14.36
2023-04-23T04:14:34.619Z,14.34
2023-04-23T04:17:36.149Z,14.42
2023-04-23T04:20:37.882Z,14.50
2023-04-23T04:23:39.849Z,14.41
2023-04-23T04:26:42.071Z,14.48
2023-04-23T04:29:43.647Z,14.41
2023-04-23T04:32:46.229Z,14.34
2023-04-23T04:35:49.631Z,14.29
2023-04-23T04:38:51.848Z,14.18
2023-04-23T04:41:54.437Z,14.24
2023-04-23T04:44:59.228Z,14.30
2023-04-23T04:48:00.805Z,14.43
2023-04-23T04:51:02.299Z,14.48
2023-04-23T04:54:04.155Z,14.58
2023-04-23T04:57:06.392Z,14.66
2023-04-23T05:00:29.297Z,14.65
2023-04-23T05:03:31.376Z,14.68
2023-04-23T05:06:32.967Z,14.78
2023-04-23T05:09:34.529Z,14.80
2023-04-23T05:12:37.188Z,14.98
2023-04-23T05:15:38.660Z,15.07
2023-04-23T05:18:41.396Z,15.09
2023-04-23T05:21:42.904Z,15.18
2023-04-23T05:24:45.488Z,15.15
2023-04-23T05:27:47.033Z,15.12
2023-04-23T05:30:49.655Z,15.19
2023-04-23T05:33:51.216Z,15.29
2023-04-23T05:36:52.745Z,15.36
2023-04-23T05:39:54.251Z,15.51
2023-04-23T05:42:58.286Z,15.61
2023-04-23T05:45:59.751Z,15.65
2023-04-23T05:49:01.253Z,15.64
2023-04-23T05:52:03.172Z,15.67
2023-04-23T05:55:05.396Z,15.72
2023-04-23T05:58:07.126Z,15.81
2023-04-23T06:01:08.691Z,15.88
2023-04-23T06:04:10.354Z,15.84
2023-04-23T06:07:12.683Z,16.01
2023-04-23T06:10:14.320Z,16.24
2023-04-23T06:13:16.292Z,16.28
2023-04-23T06:16:17.836Z,16.24
2023-04-23T06:19:19.335Z,16.28
2023-04-23T06:22:20.902Z,16.39
2023-04-23T06:25:22.493Z,16.57
2023-04-23T06:28:24.266Z,16.74
2023-04-23T06:32:01.558Z,16.86
2023-04-23T06:35:09.513Z,17.00
2023-04-23T06:38:11.048Z,17.93
2023-04-23T06:41:15.376Z,18.69
2023-04-23T06:44:16.877Z,21.32
2023-04-23T06:47:27.085Z,21.60
2023-04-23T06:50:28.702Z,21.62
2023-04-23T06:53:30.287Z,21.63
2023-04-23T06:56:31.745Z,21.57
2023-04-23T06:59:33.349Z,21.53
2023-04-23T07:02:36.217Z,21.51
2023-04-23T07:05:37.785Z,21.59
2023-04-23T07:08:39.777Z,21.40
2023-04-23T07:11:41.447Z,21.44
2023-04-23T07:14:43.760Z,21.56
2023-04-23T07:17:46.096Z,21.48
2023-04-23T07:20:47.611Z,21.52
2023-04-23T07:23:49.087Z,21.55
2023-04-23T07:26:50.725Z,21.43
2023-04-23T07:29:52.254Z,21.55
2023-04-23T07:32:54.464Z,21.50
2023-04-23T07:35:56.088Z,21.52
2023-04-23T07:39:06.973Z,21.65
2023-04-23T07:42:08.941Z,21.70
2023-04-23T07:45:11.377Z,21.90
2023-04-23T07:48:12.888Z,21.97
2023-04-23T07:51:14.500Z,21.89
2023-04-23T07:54:15.956Z,21.77
2023-04-23T07:57:17.462Z,20.77
2023-04-23T08:00:19.056Z,20.69
2023-04-23T08:03:21.180Z,20.75
2023-04-23T08:06:23.500Z,20.87
2023-04-23T08:09:26.001Z,20.70
2023-04-23T08:12:27.498Z,20.72
2023-04-23T08:15:29.130Z,20.75
2023-04-23T08:18:31.043Z,20.79
2023-04-23T08:21:33.061Z,20.70
2023-04-23T08:24:34.515Z,20.69
2023-04-23T08:27:36.575Z,20.64
2023-04-23T08:30:38.628Z,20.94
2023-04-23T08:33:40.452Z,20.71
2023-04-23T08:36:42.007Z,20.79
2023-04-23T08:39:43.747Z,21.09
2023-04-23T08:42:49.599Z,21.33
2023-04-23T08:45:51.398Z,21.60
2023-04-23T08:48:53.416Z,21.35
2023-04-23T08:51:58.285Z,21.25
2023-04-23T08:55:01.483Z,21.72
2023-04-23T08:58:06.284Z,22.26
2023-04-23T09:01:08.531Z,22.15
2023-04-23T09:04:11.158Z,22.07
2023-04-23T09:07:13.124Z,22.08
2023-04-23T09:10:18.262Z,21.78
2023-04-23T09:13:20.273Z,21.67
2023-04-23T09:16:21.936Z,21.41
2023-04-23T09:19:27.599Z,21.69
2023-04-23T09:22:49.384Z,21.92
2023-04-23T09:25:51.020Z,22.20
2023-04-23T09:28:52.686Z,22.45
2023-04-23T09:31:56.111Z,22.86
2023-04-23T09:34:57.756Z,23.20
2023-04-23T09:37:59.326Z,22.99
2023-04-23T09:41:20.919Z,23.37
2023-04-23T09:44:23.136Z,23.21
2023-04-23T09:47:25.425Z,23.35
2023-04-23T09:50:37.013Z,23.61
2023-04-23T09:53:45.847Z,23.72
2023-04-23T09:56:53.662Z,23.63
2023-04-23T10:00:07.225Z,23.71
2023-04-23T10:03:15.777Z,23.47
2023-04-23T10:06:37.072Z,22.78
2023-04-23T10:09:41.824Z,22.29
2023-04-23T10:12:54.131Z,22.01
2023-04-23T10:16:04.703Z,21.85
2023-04-23T10:19:12.549Z,22.37
2023-04-23T10:22:19.356Z,22.24
2023-04-23T10:25:24.397Z,21.96
2023-04-23T10:28:31.853Z,21.99
2023-04-23T10:31:33.983Z,22.24
2023-04-23T10:34:35.725Z,22.44
2023-04-23T10:37:38.333Z,22.52
2023-04-23T10:40:44.447Z,22.26
2023-04-23T10:43:45.988Z,22.25
2023-04-23T10:46:58.473Z,22.32
2023-04-23T10:50:18.977Z,22.17
2023-04-23T10:53:23.409Z,22.27
2023-04-23T10:56:28.019Z,22.93
2023-04-23T10:59:34.076Z,23.11
2023-04-23T11:02:45.073Z,22.93
2023-04-23T11:05:46.708Z,22.99
2023-04-23T11:08:53.784Z,22.99
2023-04-23T11:11:55.717Z,22.92
2023-04-23T11:15:01.675Z,22.79
2023-04-23T11:18:03.268Z,22.72
2023-04-23T11:21:05.049Z,23.34
2023-04-23T11:24:07.785Z,23.18
2023-04-23T11:27:14.390Z,22.78
2023-04-23T11:30:18.763Z,22.78
2023-04-23T11:33:20.395Z,22.91
2023-04-23T11:36:23.076Z,22.75
2023-04-23T11:39:24.791Z,22.78
2023-04-23T11:42:26.769Z,23.45
2023-04-23T11:45:29.852Z,23.36
2023-04-23T11:48:31.370Z,23.69
2023-04-23T11:51:32.818Z,24.12
2023-04-23T11:54:34.751Z,24.02
2023-04-23T11:57:37.412Z,23.93
2023-04-23T12:00:39.019Z,25.21
2023-04-23T12:03:40.713Z,25.14
2023-04-23T12:06:45.562Z,24.78
2023-04-23T12:09:47.195Z,24.91
2023-04-23T12:12:54.729Z,24.66
2023-04-23T12:15:59.045Z,24.42
2023-04-23T12:19:01.130Z,24.01
2023-04-23T12:22:04.263Z,24.05
2023-04-23T12:25:09.517Z,24.49
2023-04-23T12:28:11.007Z,24.85
2023-04-23T12:31:19.331Z,25.46
2023-04-23T12:34:21.618Z,25.50
2023-04-23T12:37:28.558Z,25.47
2023-04-23T12:40:30.022Z,25.53
2023-04-23T12:43:32.069Z,25.20
2023-04-23T12:46:37.729Z,25.29
2023-04-23T12:49:40.879Z,25.21
2023-04-23T12:52:43.233Z,25.66
2023-04-23T12:55:45.666Z,25.79
2023-04-23T12:58:47.983Z,25.50
2023-04-23T13:01:50.924Z,25.16
2023-04-23T13:04:54.478Z,25.65
2023-04-23T13:07:56.021Z,25.84
2023-04-23T13:10:57.471Z,25.60
2023-04-23T13:13:59.029Z,25.46
2023-04-23T13:17:00.922Z,25.46
2023-04-23T13:20:02.520Z,25.37
2023-04-23T13:23:04.100Z,25.67
2023-04-23T13:26:08.186Z,25.66
2023-04-23T13:29:09.744Z,25.71
2023-04-23T13:32:11.356Z,25.57
2023-04-23T13:35:14.439Z,25.55
2023-04-23T13:38:16.682Z,25.73
2023-04-23T13:41:18.220Z,25.55
2023-04-23T13:44:19.730Z,25.59
2023-04-23T13:47:21.627Z,25.78
2023-04-23T13:50:23.108Z,25.88
2023-04-23T13:53:25.373Z,25.92
2023-04-23T13:56:27.545Z,25.85
2023-04-23T13:59:29.236Z,25.71
2023-04-23T14:02:30.850Z,25.62
2023-04-23T14:05:32.503Z,25.09
2023-04-23T14:08:36.717Z,24.62
2023-04-23T14:11:40.320Z,24.31
2023-04-23T14:14:41.997Z,23.88
2023-04-23T14:17:45.384Z,23.20
2023-04-23T14:20:46.940Z,22.17
2023-04-23T14:23:48.346Z,21.56
2023-04-23T14:26:50.310Z,21.58
2023-04-23T14:29:57.853Z,21.78
2023-04-23T14:32:59.527Z,22.05
2023-04-23T14:36:01.264Z,22.21
2023-04-23T14:39:05.364Z,22.37
2023-04-23T14:42:06.805Z,22.26
2023-04-23T14:45:08.819Z,21.99
2023-04-23T14:48:10.489Z,21.86
2023-04-23T14:51:11.993Z,22.12
2023-04-23T14:54:13.702Z,22.83
2023-04-23T14:57:15.241Z,22.96
2023-04-23T15:00:17.672Z,22.95
2023-04-23T15:03:19.361Z,23.35
2023-04-23T15:06:21.301Z,23.87
2023-04-23T15:09:22.867Z,24.40
2023-04-23T15:12:47.360Z,25.08
2023-04-23T15:15:50.690Z,25.53
2023-04-23T15:18:52.219Z,25.80
2023-04-23T15:21:53.893Z,26.10
2023-04-23T15:24:55.395Z,25.82
2023-04-23T15:27:57.869Z,24.95
2023-04-23T15:30:59.377Z,24.27
2023-04-23T15:34:01.665Z,23.85
2023-04-23T15:37:03.163Z,23.77
2023-04-23T15:40:05.057Z,23.59
2023-04-23T15:43:06.589Z,23.05
2023-04-23T15:46:08.188Z,22.46
2023-04-23T15:49:09.823Z,22.10
2023-04-23T15:52:11.296Z,22.03
2023-04-23T15:55:12.757Z,22.08
2023-04-23T15:58:14.219Z,22.15
2023-04-23T16:01:17.386Z,22.11
2023-04-23T16:04:19.023Z,21.90
2023-04-23T16:07:20.794Z,21.66
2023-04-23T16:10:22.328Z,21.36
2023-04-23T16:13:24.256Z,21.47
2023-04-23T16:16:26.009Z,21.58
2023-04-23T16:19:28.390Z,21.36
2023-04-23T16:22:29.880Z,21.32
2023-04-23T16:25:31.355Z,21.49
2023-04-23T16:28:32.846Z,21.56
2023-04-23T16:31:34.491Z,21.60
2023-04-23T16:34:35.961Z,21.67
2023-04-23T16:37:37.768Z,21.91
2023-04-23T16:40:39.815Z,21.83
2023-04-23T16:43:41.437Z,21.51
2023-04-23T16:46:43.176Z,21.15
2023-04-23T16:49:46.048Z,20.94
2023-04-23T16:52:47.708Z,20.87
2023-04-23T16:55:49.279Z,20.57
2023-04-23T16:58:50.831Z,20.33
2023-04-23T17:01:52.375Z,20.16
2023-04-23T17:04:54.041Z,20.14
2023-04-23T17:07:55.839Z,20.24
2023-04-23T17:10:57.545Z,20.31
2023-04-23T17:13:59.037Z,20.34
2023-04-23T17:17:00.638Z,20.21
2023-04-23T17:20:03.688Z,20.17
2023-04-23T17:23:05.150Z,20.13
2023-04-23T17:26:06.922Z,19.83
2023-04-23T17:29:08.397Z,19.85
2023-04-23T17:32:09.929Z,19.70
2023-04-23T17:35:11.510Z,19.81
2023-04-23T17:38:13.820Z,19.58
2023-04-23T17:41:16.925Z,18.77
2023-04-23T17:44:18.441Z,18.51
2023-04-23T17:47:20.064Z,17.67
2023-04-23T17:50:22.007Z,17.03
2023-04-23T17:53:23.531Z,16.55
2023-04-23T17:56:25.054Z,16.16
2023-04-23T17:59:26.522Z,15.92
2023-04-23T18:02:28.224Z,15.65
2023-04-23T18:05:30.878Z,15.67
2023-04-23T18:08:32.365Z,15.48
2023-04-23T18:11:33.993Z,15.47
2023-04-23T18:14:35.472Z,15.41
2023-04-23T18:17:37.097Z,15.33
2023-04-23T18:20:40.094Z,15.38
2023-04-23T18:23:41.662Z,15.65
2023-04-23T18:26:43.138Z,15.77
2023-04-23T18:29:45.401Z,15.49
2023-04-23T18:32:49.154Z,15.24
2023-04-23T18:35:53.207Z,15.31
2023-04-23T18:38:54.775Z,15.54
2023-04-23T18:41:56.584Z,15.59
2023-04-23T18:44:58.290Z,15.63
2023-04-23T18:48:23.291Z,15.48
2023-04-23T18:51:30.056Z,15.58
2023-04-23T18:54:31.579Z,15.55
2023-04-23T18:57:33.135Z,15.65
2023-04-23T19:00:34.758Z,15.61
2023-04-23T19:03:36.761Z,15.73
2023-04-23T19:06:38.541Z,15.77
2023-04-23T19:09:40.420Z,15.68
2023-04-23T19:12:43.093Z,15.75
2023-04-23T19:15:44.647Z,15.87
2023-04-23T19:18:46.205Z,15.80
2023-04-23T19:21:47.685Z,15.83
2023-04-23T19:24:49.157Z,15.84
2023-04-23T19:27:50.808Z,15.72
2023-04-23T19:30:52.372Z,15.79
2023-04-23T19:33:53.829Z,15.75
2023-04-23T19:36:55.253Z,15.54
2023-04-23T19:39:56.701Z,15.49
2023-04-23T19:42:58.219Z,15.64
2023-04-23T19:46:03.206Z,15.79
2023-04-23T19:49:04.770Z,15.88
2023-04-23T19:52:07.116Z,15.92
2023-04-23T19:55:08.994Z,15.90
2023-04-23T19:58:10.695Z,15.82
2023-04-23T20:01:13.114Z,15.80
2023-04-23T20:04:14.965Z,15.81
2023-04-23T20:07:16.968Z,15.75
2023-04-23T20:10:18.421Z,15.87
2023-04-23T20:13:20.715Z,15.97
2023-04-23T20:16:22.239Z,15.86
2023-04-23T20:19:25.881Z,15.83
2023-04-23T20:22:31.003Z,15.76
2023-04-23T20:25:32.554Z,15.91
2023-04-23T20:28:34.310Z,15.87
2023-04-23T20:31:36.316Z,15.93
2023-04-23T20:34:37.767Z,15.96
2023-04-23T20:37:40.691Z,15.95
2023-04-23T20:40:42.270Z,16.03
2023-04-23T20:43:43.786Z,16.03
2023-04-23T20:46:45.314Z,16.10
2023-04-23T20:49:46.845Z,15.98
2023-04-23T20:52:48.593Z,16.04
2023-04-23T20:55:50.312Z,15.96
2023-04-23T20:58:51.907Z,15.96
2023-04-23T21:01:53.608Z,16.01
2023-04-23T21:04:55.217Z,16.06
2023-04-23T21:07:56.810Z,16.03
2023-04-23T21:10:58.621Z,15.95
2023-04-23T21:14:00.968Z,15.93
2023-04-23T21:17:02.539Z,15.95
2023-04-23T21:20:08.245Z,15.88
2023-04-23T21:23:13.164Z,15.90
2023-04-23T21:26:14.642Z,15.87
2023-04-23T21:29:16.260Z,15.73
2023-04-23T21:32:17.761Z,15.74
2023-04-23T21:35:19.547Z,15.73
2023-04-23T21:38:21.487Z,15.72
2023-04-23T21:41:24.460Z,15.72
2023-04-23T21:44:28.444Z,15.77
2023-04-23T21:47:29.979Z,15.86
2023-04-23T21:50:32.700Z,15.84
2023-04-23T21:53:34.352Z,15.73
2023-04-23T21:56:35.914Z,15.73
2023-04-23T21:59:37.472Z,15.70
2023-04-23T22:02:40.383Z,15.81
2023-04-23T22:05:42.429Z,15.82
2023-04-23T22:08:44.913Z,15.81
2023-04-23T22:12:01.104Z,15.76
2023-04-23T22:15:08.501Z,15.80
2023-04-23T22:18:10.311Z,15.90
2023-04-23T22:21:11.800Z,15.89
2023-04-23T22:24:13.304Z,15.93
2023-04-23T22:27:14.859Z,15.90
2023-04-23T22:30:16.385Z,15.94
2023-04-23T22:33:18.037Z,15.94
2023-04-23T22:36:19.665Z,15.93
2023-04-23T22:39:21.395Z,15.91
2023-04-23T22:42:22.921Z,15.87
2023-04-23T22:45:24.428Z,15.83
2023-04-23T22:48:27.926Z,15.63
2023-04-23T22:51:33.369Z,15.58
2023-04-23T22:54:34.939Z,15.54
2023-04-23T22:57:36.454Z,15.52
2023-04-23T23:00:38.179Z,15.48
2023-04-23T23:03:39.759Z,15.49
2023-04-23T23:06:42.999Z,15.59
2023-04-23T23:09:44.707Z,15.57
2023-04-23T23:12:46.360Z,15.55
2023-04-23T23:15:47.930Z,15.58
2023-04-23T23:18:49.585Z,15.62
2023-04-23T23:21:51.526Z,15.66
2023-04-23T23:24:53.035Z,15.63
2023-04-23T23:27:54.497Z,15.51
2023-04-23T23:30:56.083Z,15.58
2023-04-23T23:33:57.773Z,15.48
2023-04-23T23:36:59.291Z,15.57
2023-04-23T23:40:00.824Z,15.43
2023-04-23T23:43:02.276Z,15.30
2023-04-23T23:46:03.815Z,15.32
2023-04-23T23:49:06.091Z,15.27
2023-04-23T23:52:07.559Z,15.30
2023-04-23T23:55:10.247Z,15.21
2023-04-23T23:58:11.751Z,15.25
